sensor_id;sensor_type;location;lat;lon;timestamp;pressure;altitude;pressure_sealevel;temperature;humidity
75855;BME280;64502;59.976;30.316;2023-02-28T00:02:20;100988.09;;;1.00;87.62
75855;BME280;64502;59.976;30.316;2023-02-28T00:04:45;101030.47;;;1.05;87.20
75855;BME280;64502;59.976;30.316;2023-02-28T00:07:18;101011.38;;;1.07;87.11
75855;BME280;64502;59.976;30.316;2023-02-28T00:09:44;100987.94;;;1.09;87.08
75855;BME280;64502;59.976;30.316;2023-02-28T00:12:09;100984.44;;;1.11;86.71
75855;BME280;64502;59.976;30.316;2023-02-28T00:14:38;100975.72;;;1.16;86.84
75855;BME280;64502;59.976;30.316;2023-02-28T00:17:04;100982.63;;;1.17;86.61
75855;BME280;64502;59.976;30.316;2023-02-28T00:19:29;100970.44;;;1.22;86.37
75855;BME280;64502;59.976;30.316;2023-02-28T00:21:54;100979.97;;;1.23;86.41
75855;BME280;64502;59.976;30.316;2023-02-28T00:24:20;100967.72;;;1.28;86.15
75855;BME280;64502;59.976;30.316;2023-02-28T00:26:45;100997.22;;;1.28;85.53
75855;BME280;64502;59.976;30.316;2023-02-28T00:29:11;100960.78;;;1.30;85.80
75855;BME280;64502;59.976;30.316;2023-02-28T00:31:36;101013.56;;;1.35;85.44
75855;BME280;64502;59.976;30.316;2023-02-28T00:34:02;100973.66;;;1.36;85.00
75855;BME280;64502;59.976;30.316;2023-02-28T00:36:27;100971.03;;;1.39;84.85
75855;BME280;64502;59.976;30.316;2023-02-28T00:38:53;100978.00;;;1.37;85.63
75855;BME280;64502;59.976;30.316;2023-02-28T00:41:18;100977.06;;;1.41;85.07
75855;BME280;64502;59.976;30.316;2023-02-28T00:43:43;100960.59;;;1.41;84.96
75855;BME280;64502;59.976;30.316;2023-02-28T00:46:09;100953.59;;;1.44;84.78
75855;BME280;64502;59.976;30.316;2023-02-28T00:48:35;100961.31;;;1.49;84.57
75855;BME280;64502;59.976;30.316;2023-02-28T00:51:01;100925.75;;;1.51;84.41
75855;BME280;64502;59.976;30.316;2023-02-28T00:53:27;100948.31;;;1.50;85.00
75855;BME280;64502;59.976;30.316;2023-02-28T00:55:53;100931.75;;;1.54;84.22
75855;BME280;64502;59.976;30.316;2023-02-28T00:58:18;100938.69;;;1.55;84.12
75855;BME280;64502;59.976;30.316;2023-02-28T01:00:44;100933.50;;;1.55;84.38
75855;BME280;64502;59.976;30.316;2023-02-28T01:03:14;100922.19;;;1.57;83.71
75855;BME280;64502;59.976;30.316;2023-02-28T01:05:40;100921.34;;;1.56;83.80
75855;BME280;64502;59.976;30.316;2023-02-28T01:08:06;100915.25;;;1.57;84.38
75855;BME280;64502;59.976;30.316;2023-02-28T01:10:32;100920.34;;;1.63;83.99
75855;BME280;64502;59.976;30.316;2023-02-28T01:12:57;100922.13;;;1.60;83.93
75855;BME280;64502;59.976;30.316;2023-02-28T01:15:23;100936.84;;;1.62;83.78
75855;BME280;64502;59.976;30.316;2023-02-28T01:17:48;100919.47;;;1.64;83.13
75855;BME280;64502;59.976;30.316;2023-02-28T01:20:14;100917.72;;;1.63;83.31
75855;BME280;64502;59.976;30.316;2023-02-28T01:22:39;100911.72;;;1.61;83.70
75855;BME280;64502;59.976;30.316;2023-02-28T01:25:05;100908.25;;;1.61;83.89
75855;BME280;64502;59.976;30.316;2023-02-28T01:27:30;100928.13;;;1.63;83.12
75855;BME280;64502;59.976;30.316;2023-02-28T01:29:56;100906.53;;;1.61;83.58
75855;BME280;64502;59.976;30.316;2023-02-28T01:32:21;100899.59;;;1.60;83.39
75855;BME280;64502;59.976;30.316;2023-02-28T01:34:47;100915.19;;;1.60;83.66
75855;BME280;64502;59.976;30.316;2023-02-28T01:37:12;100927.34;;;1.58;83.75
75855;BME280;64502;59.976;30.316;2023-02-28T01:39:38;100904.00;;;1.55;83.75
75855;BME280;64502;59.976;30.316;2023-02-28T01:42:03;100882.34;;;1.54;84.05
75855;BME280;64502;59.976;30.316;2023-02-28T01:47:47;100906.53;;;1.60;83.36
75855;BME280;64502;59.976;30.316;2023-02-28T01:50:17;100871.88;;;1.58;82.73
75855;BME280;64502;59.976;30.316;2023-02-28T01:52:44;100875.38;;;1.57;82.92
75855;BME280;64502;59.976;30.316;2023-02-28T01:55:10;100890.94;;;1.60;83.23
75855;BME280;64502;59.976;30.316;2023-02-28T01:57:50;100884.03;;;1.57;83.02
75855;BME280;64502;59.976;30.316;2023-02-28T02:00:18;100898.78;;;1.57;82.87
75855;BME280;64502;59.976;30.316;2023-02-28T02:02:47;100878.84;;;1.57;82.92
75855;BME280;64502;59.976;30.316;2023-02-28T02:05:25;100874.50;;;1.58;82.96
75855;BME280;64502;59.976;30.316;2023-02-28T02:07:55;100912.66;;;1.57;82.98
75855;BME280;64502;59.976;30.316;2023-02-28T02:10:36;100878.81;;;1.59;83.20
75855;BME280;64502;59.976;30.316;2023-02-28T02:16:01;100862.31;;;1.60;82.37
75855;BME280;64502;59.976;30.316;2023-02-28T02:18:35;100851.06;;;1.59;82.46
75855;BME280;64502;59.976;30.316;2023-02-28T02:35:18;100864.16;;;1.54;82.66
75855;BME280;64502;59.976;30.316;2023-02-28T02:40:23;100859.75;;;1.58;83.15
75855;BME280;64502;59.976;30.316;2023-02-28T02:43:52;100857.19;;;1.57;82.89
75855;BME280;64502;59.976;30.316;2023-02-28T02:46:10;100868.44;;;1.57;82.91
75855;BME280;64502;59.976;30.316;2023-02-28T02:48:40;100865.78;;;1.60;82.60
75855;BME280;64502;59.976;30.316;2023-02-28T02:51:09;100843.22;;;1.61;82.78
75855;BME280;64502;59.976;30.316;2023-02-28T02:54:02;100842.38;;;1.60;82.84
75855;BME280;64502;59.976;30.316;2023-02-28T02:56:31;100851.94;;;1.58;82.94
75855;BME280;64502;59.976;30.316;2023-02-28T02:59:08;100848.53;;;1.56;82.67
75855;BME280;64502;59.976;30.316;2023-02-28T03:01:35;100836.44;;;1.53;82.28
75855;BME280;64502;59.976;30.316;2023-02-28T03:04:08;100830.31;;;1.56;82.56
75855;BME280;64502;59.976;30.316;2023-02-28T03:06:34;100820.78;;;1.57;82.37
75855;BME280;64502;59.976;30.316;2023-02-28T03:09:00;100826.00;;;1.55;82.25
75855;BME280;64502;59.976;30.316;2023-02-28T03:11:26;100824.28;;;1.54;82.71
75855;BME280;64502;59.976;30.316;2023-02-28T03:31:12;100805.97;;;1.60;82.96
75855;BME280;64502;59.976;30.316;2023-02-28T03:34:01;100803.34;;;1.60;82.05
75855;BME280;64502;59.976;30.316;2023-02-28T03:36:32;100804.25;;;1.59;81.92
75855;BME280;64502;59.976;30.316;2023-02-28T03:39:06;100798.16;;;1.60;82.17
75855;BME280;64502;59.976;30.316;2023-02-28T03:41:42;100804.25;;;1.59;82.26
75855;BME280;64502;59.976;30.316;2023-02-28T03:44:13;100815.53;;;1.58;81.93
75855;BME280;64502;59.976;30.316;2023-02-28T03:46:47;100803.41;;;1.59;82.13
75855;BME280;64502;59.976;30.316;2023-02-28T03:49:18;100799.00;;;1.61;82.39
75855;BME280;64502;59.976;30.316;2023-02-28T03:51:46;100806.94;;;1.54;81.83
75855;BME280;64502;59.976;30.316;2023-02-28T03:54:22;100797.44;;;1.52;81.78
75855;BME280;64502;59.976;30.316;2023-02-28T03:56:57;100793.09;;;1.52;82.29
75855;BME280;64502;59.976;30.316;2023-02-28T03:59:43;100787.97;;;1.49;82.39
75855;BME280;64502;59.976;30.316;2023-02-28T04:02:09;100802.75;;;1.47;82.32
75855;BME280;64502;59.976;30.316;2023-02-28T04:04:35;100800.13;;;1.49;82.06
75855;BME280;64502;59.976;30.316;2023-02-28T04:07:06;100796.66;;;1.48;82.09
75855;BME280;64502;59.976;30.316;2023-02-28T04:09:33;100799.25;;;1.48;82.70
75855;BME280;64502;59.976;30.316;2023-02-28T04:11:58;100795.81;;;1.48;82.31
75855;BME280;64502;59.976;30.316;2023-02-28T04:14:24;100815.78;;;1.46;82.81
75855;BME280;64502;59.976;30.316;2023-02-28T04:16:50;100807.97;;;1.47;82.03
75855;BME280;64502;59.976;30.316;2023-02-28T04:19:16;100804.59;;;1.42;82.17
75855;BME280;64502;59.976;30.316;2023-02-28T04:21:45;100814.16;;;1.39;82.45
75855;BME280;64502;59.976;30.316;2023-02-28T04:24:13;100803.75;;;1.40;82.20
75855;BME280;64502;59.976;30.316;2023-02-28T04:26:44;100811.63;;;1.36;82.37
75855;BME280;64502;59.976;30.316;2023-02-28T04:29:12;100800.41;;;1.33;82.65
75855;BME280;64502;59.976;30.316;2023-02-28T04:31:38;100803.97;;;1.29;82.62
75855;BME280;64502;59.976;30.316;2023-02-28T04:34:04;100790.97;;;1.29;82.99
75855;BME280;64502;59.976;30.316;2023-02-28T04:36:30;100820.47;;;1.27;83.06
75855;BME280;64502;59.976;30.316;2023-02-28T04:38:56;100780.56;;;1.28;82.98
75855;BME280;64502;59.976;30.316;2023-02-28T04:41:22;100786.69;;;1.25;82.88
75855;BME280;64502;59.976;30.316;2023-02-28T04:43:48;100772.84;;;1.25;82.69
75855;BME280;64502;59.976;30.316;2023-02-28T04:46:14;100774.63;;;1.23;83.40
75855;BME280;64502;59.976;30.316;2023-02-28T04:48:40;100785.03;;;1.23;83.19
75855;BME280;64502;59.976;30.316;2023-02-28T04:51:09;100778.94;;;1.24;83.16
75855;BME280;64502;59.976;30.316;2023-02-28T04:53:39;100779.78;;;1.26;82.86
75855;BME280;64502;59.976;30.316;2023-02-28T04:56:06;100776.28;;;1.27;82.75
75855;BME280;64502;59.976;30.316;2023-02-28T04:58:32;100774.59;;;1.24;83.23
75855;BME280;64502;59.976;30.316;2023-02-28T05:01:05;100785.84;;;1.25;83.04
75855;BME280;64502;59.976;30.316;2023-02-28T05:03:38;100783.28;;;1.23;82.67
75855;BME280;64502;59.976;30.316;2023-02-28T05:06:06;100788.44;;;1.25;82.92
75855;BME280;64502;59.976;30.316;2023-02-28T05:08:32;100795.31;;;1.29;82.46
75855;BME280;64502;59.976;30.316;2023-02-28T05:10:58;100779.78;;;1.26;83.30
75855;BME280;64502;59.976;30.316;2023-02-28T05:13:26;100803.97;;;1.29;82.49
75855;BME280;64502;59.976;30.316;2023-02-28T05:15:51;100797.84;;;1.32;82.94
75855;BME280;64502;59.976;30.316;2023-02-28T05:18:16;100790.84;;;1.36;82.79
75855;BME280;64502;59.976;30.316;2023-02-28T05:20:42;100789.00;;;1.41;82.19
75855;BME280;64502;59.976;30.316;2023-02-28T05:23:08;100791.47;;;1.48;82.08
75855;BME280;64502;59.976;30.316;2023-02-28T05:25:36;100777.63;;;1.46;82.27
75855;BME280;64502;59.976;30.316;2023-02-28T05:28:01;100779.31;;;1.49;82.08
75855;BME280;64502;59.976;30.316;2023-02-28T05:30:27;100781.78;;;1.57;82.29
75855;BME280;64502;59.976;30.316;2023-02-28T05:32:53;100780.81;;;1.61;81.36
75855;BME280;64502;59.976;30.316;2023-02-28T05:35:18;100792.81;;;1.66;81.81
75855;BME280;64502;59.976;30.316;2023-02-28T05:37:43;100798.00;;;1.68;81.17
75855;BME280;64502;59.976;30.316;2023-02-28T05:40:09;100789.28;;;1.72;81.57
75855;BME280;64502;59.976;30.316;2023-02-28T05:42:36;100788.31;;;1.74;81.17
75855;BME280;64502;59.976;30.316;2023-02-28T05:45:01;100804.75;;;1.78;80.42
75855;BME280;64502;59.976;30.316;2023-02-28T05:47:27;100828.09;;;1.80;80.68
75855;BME280;64502;59.976;30.316;2023-02-28T05:49:52;100817.75;;;1.78;81.55
75855;BME280;64502;59.976;30.316;2023-02-28T05:52:17;100819.53;;;1.76;81.87
75855;BME280;64502;59.976;30.316;2023-02-28T05:54:43;100823.09;;;1.70;81.53
75855;BME280;64502;59.976;30.316;2023-02-28T05:57:08;100830.41;;;1.51;82.83
75855;BME280;64502;59.976;30.316;2023-02-28T05:59:34;100847.09;;;1.40;83.33
75855;BME280;64502;59.976;30.316;2023-02-28T06:01:59;100865.31;;;1.38;83.94
75855;BME280;64502;59.976;30.316;2023-02-28T06:04:25;100857.47;;;1.41;84.09
75855;BME280;64502;59.976;30.316;2023-02-28T06:06:51;100853.94;;;1.45;84.03
75855;BME280;64502;59.976;30.316;2023-02-28T06:09:17;100869.34;;;1.54;84.32
75855;BME280;64502;59.976;30.316;2023-02-28T06:11:44;100864.91;;;1.61;82.95
75855;BME280;64502;59.976;30.316;2023-02-28T06:14:20;100863.03;;;1.68;82.71
75855;BME280;64502;59.976;30.316;2023-02-28T06:16:45;100872.41;;;1.76;82.52
75855;BME280;64502;59.976;30.316;2023-02-28T06:19:11;100872.34;;;1.80;81.83
75855;BME280;64502;59.976;30.316;2023-02-28T06:21:38;100872.25;;;1.84;81.34
75855;BME280;64502;59.976;30.316;2023-02-28T06:24:03;100860.00;;;1.89;80.75
75855;BME280;64502;59.976;30.316;2023-02-28T06:26:29;100867.75;;;1.94;79.58
75855;BME280;64502;59.976;30.316;2023-02-28T06:28:56;100858.19;;;1.93;76.72
75855;BME280;64502;59.976;30.316;2023-02-28T06:31:22;100873.75;;;1.96;77.15
75855;BME280;64502;59.976;30.316;2023-02-28T06:33:48;100880.69;;;1.97;77.39
75855;BME280;64502;59.976;30.316;2023-02-28T06:36:18;100882.38;;;1.98;77.90
75855;BME280;64502;59.976;30.316;2023-02-28T06:38:44;100907.50;;;2.00;76.49
75855;BME280;64502;59.976;30.316;2023-02-28T06:41:10;100909.19;;;2.03;76.99
75855;BME280;64502;59.976;30.316;2023-02-28T06:43:39;100916.97;;;2.05;76.69
75855;BME280;64502;59.976;30.316;2023-02-28T06:46:06;100929.03;;;2.07;76.43
75855;BME280;64502;59.976;30.316;2023-02-28T06:48:32;100929.81;;;2.12;77.31
75855;BME280;64502;59.976;30.316;2023-02-28T06:51:05;100944.44;;;2.18;75.42
75855;BME280;64502;59.976;30.316;2023-02-28T06:53:31;100943.56;;;2.19;75.31
75855;BME280;64502;59.976;30.316;2023-02-28T06:55:57;100970.38;;;2.24;75.73
75855;BME280;64502;59.976;30.316;2023-02-28T06:58:22;100955.56;;;2.26;70.54
75855;BME280;64502;59.976;30.316;2023-02-28T07:00:51;100965.97;;;2.26;69.16
75855;BME280;64502;59.976;30.316;2023-02-28T07:03:17;100959.22;;;2.17;64.81
75855;BME280;64502;59.976;30.316;2023-02-28T07:05:44;100974.16;;;2.08;62.60
75855;BME280;64502;59.976;30.316;2023-02-28T07:08:09;100998.59;;;1.99;62.87
75855;BME280;64502;59.976;30.316;2023-02-28T07:10:38;100997.88;;;1.91;61.19
75855;BME280;64502;59.976;30.316;2023-02-28T07:13:05;100976.34;;;1.83;61.12
75855;BME280;64502;59.976;30.316;2023-02-28T07:15:31;100975.59;;;1.77;63.40
75855;BME280;64502;59.976;30.316;2023-02-28T07:17:56;100955.66;;;1.76;63.05
75855;BME280;64502;59.976;30.316;2023-02-28T07:20:23;100971.25;;;1.78;63.16
75855;BME280;64502;59.976;30.316;2023-02-28T07:22:49;100968.53;;;1.84;64.26
75855;BME280;64502;59.976;30.316;2023-02-28T07:25:21;100964.09;;;1.88;61.79
75855;BME280;64502;59.976;30.316;2023-02-28T07:27:47;100968.44;;;1.89;61.41
75855;BME280;64502;59.976;30.316;2023-02-28T07:30:12;100975.34;;;1.90;60.16
75855;BME280;64502;59.976;30.316;2023-02-28T07:32:38;100981.41;;;1.90;60.09
75855;BME280;64502;59.976;30.316;2023-02-28T07:35:04;100977.09;;;1.89;58.88
75855;BME280;64502;59.976;30.316;2023-02-28T07:37:29;100971.00;;;1.90;59.42
75855;BME280;64502;59.976;30.316;2023-02-28T07:39:56;100971.00;;;1.90;57.89
75855;BME280;64502;59.976;30.316;2023-02-28T07:42:22;100972.69;;;1.93;59.49
75855;BME280;64502;59.976;30.316;2023-02-28T07:44:48;100966.56;;;1.97;58.98
75855;BME280;64502;59.976;30.316;2023-02-28T07:47:13;100971.69;;;2.00;57.40
75855;BME280;64502;59.976;30.316;2023-02-28T07:49:39;100965.66;;;1.99;55.71
75855;BME280;64502;59.976;30.316;2023-02-28T07:52:06;100960.47;;;1.98;54.26
75855;BME280;64502;59.976;30.316;2023-02-28T07:54:32;100972.69;;;1.94;54.79
75855;BME280;64502;59.976;30.316;2023-02-28T07:56:58;100974.44;;;1.92;54.35
75855;BME280;64502;59.976;30.316;2023-02-28T07:59:24;100974.44;;;1.94;54.65
75855;BME280;64502;59.976;30.316;2023-02-28T08:01:49;100966.50;;;1.98;53.93
75855;BME280;64502;59.976;30.316;2023-02-28T08:04:17;100969.19;;;1.95;53.18
75855;BME280;64502;59.976;30.316;2023-02-28T08:06:43;100973.50;;;1.96;55.07
75855;BME280;64502;59.976;30.316;2023-02-28T08:09:08;100966.50;;;2.00;55.71
75855;BME280;64502;59.976;30.316;2023-02-28T08:11:34;100965.59;;;2.03;54.35
75855;BME280;64502;59.976;30.316;2023-02-28T08:13:59;100975.94;;;2.06;54.22
75855;BME280;64502;59.976;30.316;2023-02-28T08:16:25;100976.78;;;2.06;52.52
75855;BME280;64502;59.976;30.316;2023-02-28T08:18:51;100991.50;;;2.07;52.51
75855;BME280;64502;59.976;30.316;2023-02-28T08:21:18;100987.13;;;2.09;53.15
75855;BME280;64502;59.976;30.316;2023-02-28T08:23:46;100986.16;;;2.15;52.61
75855;BME280;64502;59.976;30.316;2023-02-28T08:26:12;100987.72;;;2.23;51.86
75855;BME280;64502;59.976;30.316;2023-02-28T08:28:38;100998.81;;;2.35;50.52
75855;BME280;64502;59.976;30.316;2023-02-28T08:31:09;100990.72;;;2.49;52.21
75855;BME280;64502;59.976;30.316;2023-02-28T08:33:36;100993.09;;;2.59;51.34
75855;BME280;64502;59.976;30.316;2023-02-28T08:36:02;100983.38;;;2.67;49.54
75855;BME280;64502;59.976;30.316;2023-02-28T08:38:28;100995.28;;;2.78;49.58
75855;BME280;64502;59.976;30.316;2023-02-28T08:40:59;100997.84;;;2.81;49.94
75855;BME280;64502;59.976;30.316;2023-02-28T08:43:25;100998.66;;;2.83;48.64
75855;BME280;64502;59.976;30.316;2023-02-28T08:45:52;100999.56;;;2.82;49.97
75855;BME280;64502;59.976;30.316;2023-02-28T08:48:17;101004.72;;;2.83;50.80
75855;BME280;64502;59.976;30.316;2023-02-28T08:50:43;101015.06;;;2.88;47.71
75855;BME280;64502;59.976;30.316;2023-02-28T08:53:08;101005.41;;;2.93;49.91
75855;BME280;64502;59.976;30.316;2023-02-28T08:55:34;101015.00;;;2.91;48.12
75855;BME280;64502;59.976;30.316;2023-02-28T08:57:59;101020.19;;;2.93;48.66
75855;BME280;64502;59.976;30.316;2023-02-28T09:00:26;101034.13;;;2.90;48.74
75855;BME280;64502;59.976;30.316;2023-02-28T09:02:52;101021.97;;;2.89;49.58
75855;BME280;64502;59.976;30.316;2023-02-28T09:05:18;101039.00;;;3.05;48.72
75855;BME280;64502;59.976;30.316;2023-02-28T09:07:43;101044.34;;;3.38;48.24
75855;BME280;64502;59.976;30.316;2023-02-28T09:10:09;101037.50;;;3.70;46.44
75855;BME280;64502;59.976;30.316;2023-02-28T09:12:35;101032.34;;;4.03;46.02
75855;BME280;64502;59.976;30.316;2023-02-28T09:15:01;101034.63;;;4.48;46.15
75855;BME280;64502;59.976;30.316;2023-02-28T09:17:27;101019.97;;;5.01;45.28
75855;BME280;64502;59.976;30.316;2023-02-28T09:19:53;101027.13;;;5.51;45.33
75855;BME280;64502;59.976;30.316;2023-02-28T09:22:18;101020.75;;;5.86;42.32
75855;BME280;64502;59.976;30.316;2023-02-28T09:24:44;101023.22;;;6.17;40.84
75855;BME280;64502;59.976;30.316;2023-02-28T09:27:09;101019.75;;;6.40;41.47
75855;BME280;64502;59.976;30.316;2023-02-28T09:29:35;101012.84;;;6.63;40.10
75855;BME280;64502;59.976;30.316;2023-02-28T09:32:01;101012.66;;;6.91;40.93
75855;BME280;64502;59.976;30.316;2023-02-28T09:34:27;100991.44;;;7.19;38.71
75855;BME280;64502;59.976;30.316;2023-02-28T09:36:53;101009.38;;;7.52;38.28
75855;BME280;64502;59.976;30.316;2023-02-28T09:39:23;101011.78;;;7.78;38.02
75855;BME280;64502;59.976;30.316;2023-02-28T09:41:53;101007.94;;;8.08;38.33
75855;BME280;64502;59.976;30.316;2023-02-28T09:44:39;101013.81;;;8.33;38.40
75855;BME280;64502;59.976;30.316;2023-02-28T09:49:41;101008.53;;;7.94;37.84
75855;BME280;64502;59.976;30.316;2023-02-28T09:52:41;101017.31;;;7.72;42.20
75855;BME280;64502;59.976;30.316;2023-02-28T09:55:29;101027.94;;;7.47;38.09
75855;BME280;64502;59.976;30.316;2023-02-28T09:57:57;101027.59;;;6.89;38.31
75855;BME280;64502;59.976;30.316;2023-02-28T10:08:16;101051.09;;;4.81;35.76
75855;BME280;64502;59.976;30.316;2023-02-28T10:10:45;101052.06;;;5.06;35.11
75855;BME280;64502;59.976;30.316;2023-02-28T10:13:20;101054.19;;;5.23;34.69
75855;BME280;64502;59.976;30.316;2023-02-28T10:15:54;101036.47;;;5.60;35.57
75855;BME280;64502;59.976;30.316;2023-02-28T10:18:25;101044.47;;;6.08;34.64
75855;BME280;64502;59.976;30.316;2023-02-28T10:20:53;101043.78;;;6.53;33.83
75855;BME280;64502;59.976;30.316;2023-02-28T10:23:25;101048.75;;;6.84;33.68
75855;BME280;64502;59.976;30.316;2023-02-28T10:26:00;101037.78;;;7.20;31.14
75855;BME280;64502;59.976;30.316;2023-02-28T10:28:26;101055.06;;;7.48;31.97
75855;BME280;64502;59.976;30.316;2023-02-28T10:30:53;101042.31;;;7.81;32.54
75855;BME280;64502;59.976;30.316;2023-02-28T10:33:32;101056.00;;;8.10;31.67
75855;BME280;64502;59.976;30.316;2023-02-28T10:35:58;101047.38;;;8.49;32.10
75855;BME280;64502;59.976;30.316;2023-02-28T10:38:31;101055.41;;;8.64;29.13
75855;BME280;64502;59.976;30.316;2023-02-28T10:41:08;101055.34;;;8.66;28.71
75855;BME280;64502;59.976;30.316;2023-02-28T10:43:34;101053.06;;;8.58;27.51
75855;BME280;64502;59.976;30.316;2023-02-28T10:48:37;101054.53;;;9.03;30.36
75855;BME280;64502;59.976;30.316;2023-02-28T10:51:10;101046.16;;;9.50;28.45
75855;BME280;64502;59.976;30.316;2023-02-28T10:53:49;101057.22;;;9.93;28.78
75855;BME280;64502;59.976;30.316;2023-02-28T10:56:18;101052.44;;;10.02;26.58
75855;BME280;64502;59.976;30.316;2023-02-28T11:04:01;101068.03;;;7.95;27.18
75855;BME280;64502;59.976;30.316;2023-02-28T11:06:33;101064.69;;;7.47;29.63
75855;BME280;64502;59.976;30.316;2023-02-28T11:09:20;101061.47;;;6.95;29.56
75855;BME280;64502;59.976;30.316;2023-02-28T11:11:48;101086.03;;;6.19;27.05
75855;BME280;64502;59.976;30.316;2023-02-28T11:14:28;101084.66;;;5.81;29.11
75855;BME280;64502;59.976;30.316;2023-02-28T11:16:59;101087.97;;;5.31;28.60
75855;BME280;64502;59.976;30.316;2023-02-28T11:19:39;101090.47;;;5.06;31.03
75855;BME280;64502;59.976;30.316;2023-02-28T11:22:06;101080.53;;;4.87;30.09
75855;BME280;64502;59.976;30.316;2023-02-28T11:24:36;101073.38;;;4.63;28.56
75855;BME280;64502;59.976;30.316;2023-02-28T11:27:03;101066.19;;;4.40;29.59
75855;BME280;64502;59.976;30.316;2023-02-28T11:29:31;101072.28;;;4.06;28.29
75855;BME280;64502;59.976;30.316;2023-02-28T11:34:32;101092.38;;;3.68;28.74
75855;BME280;64502;59.976;30.316;2023-02-28T11:36:59;101093.66;;;3.49;29.65
75855;BME280;64502;59.976;30.316;2023-02-28T11:39:26;101089.50;;;3.42;29.27
75855;BME280;64502;59.976;30.316;2023-02-28T11:47:48;101081.00;;;3.33;30.14
75855;BME280;64502;59.976;30.316;2023-02-28T11:53:19;101076.59;;;3.36;31.34
75855;BME280;64502;59.976;30.316;2023-02-28T12:01:14;101065.34;;;3.32;30.18
75855;BME280;64502;59.976;30.316;2023-02-28T12:14:56;101093.34;;;3.25;29.74
75855;BME280;64502;59.976;30.316;2023-02-28T12:26:32;101101.75;;;2.98;32.31
75855;BME280;64502;59.976;30.316;2023-02-28T12:29:09;101108.94;;;2.86;32.33
75855;BME280;64502;59.976;30.316;2023-02-28T12:31:36;101100.38;;;2.80;31.50
75855;BME280;64502;59.976;30.316;2023-02-28T12:34:10;101108.44;;;2.66;31.39
75855;BME280;64502;59.976;30.316;2023-02-28T12:36:37;101100.84;;;2.55;32.19
75855;BME280;64502;59.976;30.316;2023-02-28T12:39:12;101109.63;;;2.50;31.89
75855;BME280;64502;59.976;30.316;2023-02-28T12:41:54;101094.91;;;2.47;33.16
75855;BME280;64502;59.976;30.316;2023-02-28T12:44:29;101098.34;;;2.49;32.61
75855;BME280;64502;59.976;30.316;2023-02-28T12:46:59;101104.22;;;2.59;32.09
75855;BME280;64502;59.976;30.316;2023-02-28T12:49:46;101109.16;;;2.76;32.64
75855;BME280;64502;59.976;30.316;2023-02-28T12:52:20;101109.72;;;2.88;32.17
75855;BME280;64502;59.976;30.316;2023-02-28T13:00:20;101107.91;;;3.34;32.13
75855;BME280;64502;59.976;30.316;2023-02-28T13:06:01;101109.16;;;3.56;31.83
75855;BME280;64502;59.976;30.316;2023-02-28T13:09:02;101102.97;;;3.61;33.46
75855;BME280;64502;59.976;30.316;2023-02-28T13:11:39;101104.69;;;3.62;33.83
75855;BME280;64502;59.976;30.316;2023-02-28T13:14:06;101101.06;;;3.69;35.52
75855;BME280;64502;59.976;30.316;2023-02-28T13:16:56;101105.50;;;3.64;30.09
75855;BME280;64502;59.976;30.316;2023-02-28T13:19:24;101103.09;;;3.54;31.95
75855;BME280;64502;59.976;30.316;2023-02-28T13:21:51;101103.25;;;3.48;30.41
75855;BME280;64502;59.976;30.316;2023-02-28T13:24:42;101107.72;;;3.81;29.53
75855;BME280;64502;59.976;30.316;2023-02-28T13:29:41;101105.41;;;6.15;31.03
75855;BME280;64502;59.976;30.316;2023-02-28T13:34:40;101095.22;;;8.57;26.50
75855;BME280;64502;59.976;30.316;2023-02-28T13:39:53;101096.06;;;9.34;26.11
75855;BME280;64502;59.976;30.316;2023-02-28T13:42:23;101090.41;;;9.80;24.20
75855;BME280;64502;59.976;30.316;2023-02-28T13:47:39;101101.19;;;9.56;24.87
75855;BME280;64502;59.976;30.316;2023-02-28T13:53:08;101097.28;;;9.83;23.54
75855;BME280;64502;59.976;30.316;2023-02-28T13:58:42;101101.09;;;8.43;26.83
75855;BME280;64502;59.976;30.316;2023-02-28T14:06:55;101115.78;;;5.04;27.94
75855;BME280;64502;59.976;30.316;2023-02-28T14:09:29;101115.00;;;4.38;28.90
75855;BME280;64502;59.976;30.316;2023-02-28T14:11:57;101117.06;;;3.91;28.89
75855;BME280;64502;59.976;30.316;2023-02-28T14:17:05;101105.63;;;3.20;31.00
75855;BME280;64502;59.976;30.316;2023-02-28T14:19:34;101115.69;;;2.95;30.41
75855;BME280;64502;59.976;30.316;2023-02-28T14:38:17;101123.19;;;2.19;32.63
75855;BME280;64502;59.976;30.316;2023-02-28T14:40:45;101129.50;;;2.04;31.92
75855;BME280;64502;59.976;30.316;2023-02-28T14:43:23;101125.38;;;1.91;32.67
75855;BME280;64502;59.976;30.316;2023-02-28T14:45:55;101130.84;;;1.75;31.75
75855;BME280;64502;59.976;30.316;2023-02-28T14:48:22;101134.50;;;1.64;32.19
75855;BME280;64502;59.976;30.316;2023-02-28T14:50:51;101141.53;;;1.55;33.24
75855;BME280;64502;59.976;30.316;2023-02-28T14:53:18;101137.41;;;1.41;33.06
75855;BME280;64502;59.976;30.316;2023-02-28T14:55:47;101144.44;;;1.34;33.23
75855;BME280;64502;59.976;30.316;2023-02-28T14:58:23;101147.13;;;1.26;34.47
75855;BME280;64502;59.976;30.316;2023-02-28T15:00:51;101147.25;;;1.14;34.04
75855;BME280;64502;59.976;30.316;2023-02-28T15:03:24;101151.69;;;1.07;34.15
75855;BME280;64502;59.976;30.316;2023-02-28T15:05:56;101136.19;;;1.01;34.21
75855;BME280;64502;59.976;30.316;2023-02-28T15:08:22;101138.84;;;0.95;34.72
75855;BME280;64502;59.976;30.316;2023-02-28T15:11:16;101145.84;;;0.90;36.07
75855;BME280;64502;59.976;30.316;2023-02-28T15:13:49;101141.59;;;0.81;35.74
75855;BME280;64502;59.976;30.316;2023-02-28T15:16:17;101150.34;;;0.73;34.91
75855;BME280;64502;59.976;30.316;2023-02-28T15:21:38;101160.84;;;0.62;35.89
75855;BME280;64502;59.976;30.316;2023-02-28T15:24:10;101160.06;;;0.54;35.27
75855;BME280;64502;59.976;30.316;2023-02-28T15:26:42;101162.72;;;0.46;36.15
75855;BME280;64502;59.976;30.316;2023-02-28T15:29:15;101162.78;;;0.41;36.92